首页
METAR-TAF:

METAR-TAF

机场 :

阿拉马·伊克巴勒国际机场

拉合爾, 巴基斯坦

纬度: 31-31N, 经度: 074-24E, 海拔: 216米

当前天气观测

该预报发布于41分钟前的10:25 UTC
风速6节,风向东转东南
温度 32°C
湿度 23%
气压 1011 hPa
能見度: 7000
少量云层高于4000英尺
散云层高于10000英尺

METAR: OPLA 091025Z 12006KT 7000 FEW040 SCT100 32/08 Q1011 RMK QFE985 RMK A29.84

时间: 16:06 (11:06 UTC)

预报

该预报发布于7小时和21分钟前的03:45 UTC
预报有效从09日的 06点(UTC)到 10日的 12点(UTC)
风速6节,风向西北
能見度: 5000
散云层高于10000英尺
成为
从 09日的 08点(UTC)到 09日的 12点(UTC)
风速8节,风向西转西南
能見度: 7000
短暂存在
从 10日的 01点(UTC)到 10日的 04点(UTC)
风速3节,风向东北
能見度: 2500

TAF: OPLA 090345Z 0906/1012 32006KT 5000 FU SCT100 TX32/1010Z TN17/1001Z BECMG 0908/0912 24008KT 7000 TEMPO 1001/1004 05003KT 2500

超过4000个机场的气象观测和天气预报(METAR&TAF报告)。

可查询的气象台以黄色和红色小点在地图上表示。

将鼠标移到小点上方,可查看气象台名称。

然后点击查看天气观测和预报。

如需切换地图:点击带黑十字的绿色按钮放大地图;点击带横线的绿色按钮缩小地图;或者点击绿色箭头查看邻近地区的地图。


METAR-TAF: